Terminal Aerodrome Forecast
Issued by NWS Cleveland, OH

Home | Current Version | Previous Version | Text Only | Print | Product List | Glossary On
Versions: 1 2 3 4 5 6 7 8 9 10 11 12 13 14 15 16 17 18 19 20 21 22 23 24 25 26 27
805
FTUS41 KCLE 280854 AAA
TAFCLE
TAF AMD
KCLE 280854Z 2809/2912 09003KT P6SM BKN060 BKN120
     FM281400 18006KT P6SM BKN035 BKN060
     FM281900 20010KT P6SM VCTS BKN035 OVC050CB
     FM290300 25010KT P6SM SCT035 BKN150=

USA.gov is the U.S. government's official web portal to all federal, state and local government web resources and services.